Time;durP1;ratioP1;P1;durP2;ratioP2;P2;SDS_P1;SDS_P2;PMS_P1;PMS_P2;Temp;Humidity;BMP_temperature;BMP_pressure;BME280_temperature;BME280_humidity;BME280_pressure;Samples;Min_cycle;Max_cycle;Signal;HPM_P1;HPM_P2
2021/05/15 00:01:47;;;;;;;1.58;0.90;;;11.00;76.30;;;;;;5032981;28;20500;-75
2021/05/15 00:04:13;;;;;;;1.13;0.85;;;10.90;76.40;;;;;;5033231;28;20078;-75
2021/05/15 00:06:38;;;;;;;1.33;0.82;;;10.90;76.40;;;;;;5014943;28;20033;-74
2021/05/15 00:09:05;;;;;;;1.77;1.10;;;10.90;76.40;;;;;;5014920;28;20037;-75
2021/05/15 00:11:30;;;;;;;1.98;0.90;;;10.90;76.40;;;;;;5015471;28;20447;-75
2021/05/15 00:13:56;;;;;;;0.93;0.80;;;10.90;76.30;;;;;;5033045;28;20068;-77
2021/05/15 00:16:22;;;;;;;1.45;1.15;;;10.90;76.20;;;;;;5014701;28;20038;-74
2021/05/15 00:18:48;;;;;;;1.55;0.98;;;10.90;76.20;;;;;;5014742;28;20084;-75
2021/05/15 00:21:15;;;;;;;1.50;1.20;;;10.90;76.20;;;;;;5014782;28;20036;-75
2021/05/15 00:23:40;;;;;;;2.55;1.15;;;11.00;76.10;;;;;;5014941;28;20041;-75
2021/05/15 00:26:06;;;;;;;1.95;1.35;;;11.00;76.10;;;;;;5032865;28;20361;-75
2021/05/15 00:28:32;;;;;;;1.70;1.15;;;11.00;76.10;;;;;;5033006;28;20033;-76
2021/05/15 00:30:59;;;;;;;1.70;1.08;;;11.00;76.10;;;;;;4998231;28;20032;-76
2021/05/15 00:33:25;;;;;;;1.35;0.98;;;11.00;76.10;;;;;;4998209;28;20155;-74
2021/05/15 00:35:51;;;;;;;1.38;0.77;;;11.00;76.10;;;;;;5032765;28;20037;-73
2021/05/15 00:38:17;;;;;;;0.95;0.80;;;11.00;76.10;;;;;;5032674;28;20037;-74
2021/05/15 00:40:43;;;;;;;2.00;0.90;;;11.00;76.10;;;;;;5013738;28;20483;-75
2021/05/15 00:43:09;;;;;;;1.13;0.90;;;11.00;76.20;;;;;;5031874;28;20071;-75
2021/05/15 00:45:36;;;;;;;1.40;0.82;;;11.00;76.90;;;;;;4998174;28;20051;-75
2021/05/15 00:48:03;;;;;;;1.40;0.82;;;11.00;76.30;;;;;;5031972;28;20033;-75
2021/05/15 00:50:29;;;;;;;1.38;1.00;;;10.90;76.30;;;;;;5031973;28;20069;-75
2021/05/15 00:52:56;;;;;;;0.80;0.63;;;10.80;76.30;;;;;;5031902;28;20038;-75
2021/05/15 00:55:22;;;;;;;1.08;0.90;;;10.90;76.40;;;;;;5032294;28;20111;-75
2021/05/15 00:57:48;;;;;;;1.27;1.00;;;10.90;76.40;;;;;;5014287;28;20045;-75
2021/05/15 01:00:15;;;;;;;2.08;1.00;;;10.90;76.50;;;;;;5032421;28;20037;-75
2021/05/15 01:02:42;;;;;;;0.80;0.80;;;10.90;76.40;;;;;;5014235;28;20041;-75
2021/05/15 01:05:10;;;;;;;0.90;0.77;;;10.90;76.40;;;;;;5032386;28;20034;-76
2021/05/15 01:07:36;;;;;;;1.10;1.00;;;10.90;76.50;;;;;;5031741;28;20030;-74
2021/05/15 01:10:04;;;;;;;1.35;0.98;;;10.80;76.50;;;;;;5032145;28;20044;-74
2021/05/15 01:12:30;;;;;;;0.85;0.80;;;10.80;76.60;;;;;;5032099;28;20044;-74
2021/05/15 01:14:56;;;;;;;1.42;0.85;;;10.80;77.20;;;;;;5014285;28;20053;-74
2021/05/15 01:17:21;;;;;;;3.20;1.10;;;10.90;76.70;;;;;;5013809;28;20506;-75
2021/05/15 01:19:47;;;;;;;1.58;1.02;;;10.80;76.70;;;;;;5031740;28;20041;-74
2021/05/15 01:22:15;;;;;;;2.58;1.20;;;10.70;76.70;;;;;;4997427;28;20103;-75
2021/05/15 01:24:44;;;;;;;1.40;0.90;;;10.70;76.80;;;;;;5031977;28;20049;-75
2021/05/15 01:27:13;;;;;;;0.70;0.68;;;10.70;76.80;;;;;;5031989;28;20061;-75
2021/05/15 01:29:41;;;;;;;0.80;0.70;;;10.70;76.80;;;;;;5013716;28;20491;-74
2021/05/15 01:32:09;;;;;;;1.65;1.10;;;10.70;76.90;;;;;;5031452;28;20479;-74
2021/05/15 01:34:35;;;;;;;1.00;0.90;;;10.70;77.00;;;;;;5031139;28;20049;-74
2021/05/15 01:37:01;;;;;;;1.70;1.10;;;10.60;76.80;;;;;;5013863;28;20480;-74
2021/05/15 01:39:27;;;;;;;1.13;0.77;;;10.70;76.90;;;;;;5013948;28;20030;-74
2021/05/15 01:41:52;;;;;;;1.00;0.80;;;10.60;76.80;;;;;;5031561;28;20022;-74
2021/05/15 01:44:19;;;;;;;1.58;0.80;;;10.60;76.80;;;;;;5031310;28;20049;-75
2021/05/15 01:46:45;;;;;;;1.92;1.27;;;10.60;76.90;;;;;;5031173;28;20037;-75
2021/05/15 01:49:10;;;;;;;2.38;1.02;;;10.60;77.00;;;;;;5031540;28;20498;-75
2021/05/15 01:51:36;;;;;;;2.17;1.25;;;10.60;77.00;;;;;;5032255;28;20033;-74
2021/05/15 01:54:03;;;;;;;0.80;0.80;;;10.60;77.00;;;;;;5020284;28;20060;-74
2021/05/15 01:56:30;;;;;;;1.00;0.77;;;10.50;77.00;;;;;;5020266;28;20447;-74
2021/05/15 01:58:56;;;;;;;1.60;1.10;;;10.50;77.20;;;;;;5020396;28;20518;-75
2021/05/15 02:01:24;;;;;;;1.60;1.10;;;10.50;77.20;;;;;;5020460;28;20037;-75
2021/05/15 02:03:51;;;;;;;2.53;1.42;;;10.50;77.30;;;;;;5037679;28;20046;-75
2021/05/15 02:06:17;;;;;;;1.13;0.93;;;10.40;77.40;;;;;;5019787;28;20040;-75
2021/05/15 02:08:46;;;;;;;1.25;1.08;;;10.40;77.50;;;;;;5038098;28;20053;-75
2021/05/15 02:11:13;;;;;;;1.05;0.90;;;10.30;77.60;;;;;;5037565;28;20044;-74
2021/05/15 02:13:38;;;;;;;1.02;0.90;;;10.20;77.80;;;;;;5003672;28;20099;-74
2021/05/15 02:16:05;;;;;;;1.15;0.82;;;10.20;77.80;;;;;;5037591;28;20041;-74
2021/05/15 02:18:32;;;;;;;1.15;0.90;;;10.20;77.90;;;;;;5037607;28;20049;-75
2021/05/15 02:20:58;;;;;;;0.80;0.70;;;10.20;77.90;;;;;;5004088;28;20041;-75
2021/05/15 02:23:25;;;;;;;1.35;1.00;;;10.20;77.90;;;;;;5037373;28;20091;-74
2021/05/15 02:25:53;;;;;;;1.52;0.90;;;10.20;77.80;;;;;;5020738;28;20052;-76
2021/05/15 02:28:19;;;;;;;1.33;0.90;;;10.20;77.80;;;;;;5039849;28;20111;-74
2021/05/15 02:30:45;;;;;;;1.00;0.75;;;10.20;77.80;;;;;;5020001;28;20026;-73
2021/05/15 02:33:12;;;;;;;1.88;1.10;;;10.20;77.90;;;;;;5037932;28;20144;-74
2021/05/15 02:35:38;;;;;;;1.30;0.90;;;10.20;77.90;;;;;;5003267;28;20074;-74
2021/05/15 02:38:05;;;;;;;1.30;1.05;;;10.20;77.90;;;;;;5037587;28;20669;-74
2021/05/15 02:40:31;;;;;;;1.50;1.13;;;10.20;77.90;;;;;;5020032;28;20034;-75
2021/05/15 02:42:58;;;;;;;1.00;0.80;;;10.20;77.90;;;;;;5037624;28;20035;-74
2021/05/15 02:45:25;;;;;;;1.05;0.82;;;10.10;77.80;;;;;;5037030;28;20033;-74
2021/05/15 02:47:53;;;;;;;0.80;0.70;;;10.20;78.00;;;;;;5019374;28;20048;-74
2021/05/15 02:50:21;;;;;;;1.77;1.10;;;10.20;78.00;;;;;;5019312;28;20040;-74
2021/05/15 02:52:48;;;;;;;1.63;0.95;;;10.10;77.90;;;;;;5037584;28;20040;-74
2021/05/15 02:55:16;;;;;;;1.00;0.90;;;10.10;78.00;;;;;;5019207;28;20059;-75
2021/05/15 02:57:43;;;;;;;1.48;1.00;;;10.10;78.00;;;;;;5037401;28;20467;-74
2021/05/15 03:00:12;;;;;;;0.98;0.80;;;10.10;78.00;;;;;;5036943;28;20484;-75
2021/05/15 03:02:37;;;;;;;1.90;1.00;;;10.20;78.10;;;;;;5037315;28;20033;-75
2021/05/15 03:05:05;;;;;;;1.77;0.80;;;10.10;78.10;;;;;;5033428;28;20121;-75
2021/05/15 03:07:31;;;;;;;1.13;0.77;;;10.10;78.10;;;;;;5033769;28;20120;-74
2021/05/15 03:09:57;;;;;;;1.75;1.17;;;10.10;78.20;;;;;;5016432;28;20077;-75
2021/05/15 03:12:22;;;;;;;1.27;0.98;;;10.10;78.20;;;;;;5015864;28;20053;-75
2021/05/15 03:14:48;;;;;;;1.77;1.17;;;10.10;78.30;;;;;;5033599;28;20094;-75
2021/05/15 03:17:14;;;;;;;2.65;1.20;;;10.10;78.30;;;;;;5033885;28;20041;-75
2021/05/15 03:19:40;;;;;;;1.80;0.98;;;10.10;78.30;;;;;;5015698;28;20509;-76
2021/05/15 03:22:05;;;;;;;1.35;1.00;;;10.10;78.30;;;;;;5016031;28;20026;-75
2021/05/15 03:24:32;;;;;;;1.60;1.02;;;10.10;78.30;;;;;;5015672;28;20087;-75
2021/05/15 03:26:58;;;;;;;1.25;1.00;;;10.10;78.40;;;;;;5033263;28;20030;-76
2021/05/15 03:29:25;;;;;;;1.00;0.90;;;10.10;78.40;;;;;;5033496;28;20495;-75
2021/05/15 03:31:50;;;;;;;1.42;0.80;;;10.10;78.40;;;;;;4999277;28;20025;-75
2021/05/15 03:34:16;;;;;;;1.35;0.80;;;10.10;78.40;;;;;;5016160;28;20036;-75
2021/05/15 03:36:42;;;;;;;2.00;1.17;;;10.10;78.40;;;;;;5033684;28;20042;-75
2021/05/15 03:39:08;;;;;;;1.38;1.10;;;10.10;78.40;;;;;;5033756;28;20092;-76
2021/05/15 03:41:34;;;;;;;1.13;0.90;;;10.10;78.40;;;;;;5015560;28;20025;-75
2021/05/15 03:43:59;;;;;;;0.88;0.70;;;10.10;78.40;;;;;;5015585;28;20033;-75
2021/05/15 03:46:25;;;;;;;1.27;0.98;;;10.10;78.50;;;;;;5033441;28;20125;-75
2021/05/15 03:48:51;;;;;;;1.23;1.00;;;10.10;78.40;;;;;;5015602;28;20059;-75
2021/05/15 03:51:17;;;;;;;1.17;0.80;;;10.10;78.40;;;;;;5015243;28;20029;-74
2021/05/15 03:53:43;;;;;;;1.42;0.90;;;10.10;78.40;;;;;;5015165;28;20064;-75
2021/05/15 03:56:08;;;;;;;1.15;0.88;;;10.20;78.40;;;;;;5015213;28;20029;-75
2021/05/15 03:58:34;;;;;;;1.17;0.90;;;10.10;78.40;;;;;;5033489;28;20433;-74
2021/05/15 04:01:00;;;;;;;1.80;1.10;;;10.10;78.40;;;;;;5015443;28;20037;-75
2021/05/15 04:03:26;;;;;;;0.95;0.75;;;10.20;78.50;;;;;;5015515;28;20062;-75
2021/05/15 04:05:51;;;;;;;1.20;0.88;;;10.20;78.50;;;;;;5033512;28;20468;-74
2021/05/15 04:08:17;;;;;;;1.50;0.93;;;10.20;78.50;;;;;;5015952;28;20514;-74
2021/05/15 04:10:43;;;;;;;2.00;1.23;;;10.20;78.50;;;;;;5033402;28;20053;-74
2021/05/15 04:13:25;;;;;;;1.02;0.90;;;10.20;78.60;;;;;;5015239;28;20085;-74
2021/05/15 04:16:17;;;;;;;1.20;0.90;;;10.20;78.60;;;;;;5015461;28;20548;-74
2021/05/15 04:18:43;;;;;;;1.55;1.00;;;10.30;78.70;;;;;;5014754;28;20056;-74
2021/05/15 04:21:09;;;;;;;2.15;0.93;;;10.20;78.50;;;;;;5032602;28;20026;-74
2021/05/15 04:23:34;;;;;;;1.20;0.88;;;10.30;78.50;;;;;;5032566;28;20034;-75
2021/05/15 04:26:01;;;;;;;1.60;1.02;;;10.30;78.50;;;;;;5014942;28;20032;-75
2021/05/15 04:28:27;;;;;;;1.90;1.00;;;10.30;78.50;;;;;;5033125;28;20033;-75
2021/05/15 04:30:53;;;;;;;1.98;1.20;;;10.30;78.50;;;;;;5014971;28;20100;-75
2021/05/15 04:33:23;;;;;;;1.88;1.17;;;10.30;78.50;;;;;;5014911;28;20420;-75
2021/05/15 04:35:50;;;;;;;2.25;1.00;;;10.40;78.50;;;;;;5015491;28;20046;-74
2021/05/15 04:38:16;;;;;;;1.70;1.20;;;10.40;78.50;;;;;;5015290;28;20045;-74
2021/05/15 04:40:42;;;;;;;1.30;0.90;;;10.40;78.50;;;;;;5032388;28;20547;-75
2021/05/15 04:43:08;;;;;;;1.75;1.13;;;10.40;78.50;;;;;;5015189;28;20062;-74
2021/05/15 04:45:34;;;;;;;3.05;1.05;;;10.40;78.60;;;;;;5032624;28;20083;-74
2021/05/15 04:48:00;;;;;;;2.03;1.15;;;10.40;78.60;;;;;;5014694;28;20041;-74
2021/05/15 04:50:26;;;;;;;1.40;1.05;;;10.40;78.70;;;;;;5014799;28;20116;-74
2021/05/15 04:52:52;;;;;;;1.55;1.20;;;10.40;78.60;;;;;;5032239;28;20518;-75
2021/05/15 04:55:18;;;;;;;1.23;0.90;;;10.50;78.70;;;;;;5014394;28;20069;-75
2021/05/15 04:57:44;;;;;;;1.70;1.20;;;10.50;78.70;;;;;;5014860;28;20131;-75
2021/05/15 05:00:11;;;;;;;1.20;0.88;;;10.50;78.50;;;;;;5014581;28;20029;-75
2021/05/15 05:02:37;;;;;;;1.60;1.10;;;10.50;78.50;;;;;;4998015;28;20061;-75
2021/05/15 05:05:03;;;;;;;2.22;1.27;;;10.60;78.50;;;;;;5014332;28;20080;-75
2021/05/15 05:07:28;;;;;;;2.33;1.33;;;10.60;78.50;;;;;;5032173;28;20033;-75
2021/05/15 05:09:54;;;;;;;2.25;1.50;;;10.50;78.40;;;;;;5032251;28;20056;-75
2021/05/15 05:12:20;;;;;;;2.55;1.58;;;10.50;78.60;;;;;;5031803;28;20056;-75
2021/05/15 05:14:46;;;;;;;2.83;1.50;;;10.50;78.70;;;;;;5032261;28;20037;-75
2021/05/15 05:17:11;;;;;;;2.28;1.20;;;10.50;78.80;;;;;;5013943;28;20041;-75
2021/05/15 05:19:37;;;;;;;2.78;1.40;;;10.40;78.90;;;;;;5031676;28;20041;-75
2021/05/15 05:22:03;;;;;;;3.10;1.10;;;10.40;79.00;;;;;;5031866;28;20124;-75
2021/05/15 05:24:31;;;;;;;2.58;1.52;;;10.50;78.90;;;;;;5013912;28;20105;-75
2021/05/15 05:26:58;;;;;;;2.50;1.50;;;10.60;78.90;;;;;;5013270;28;20021;-75
2021/05/15 05:29:23;;;;;;;2.40;1.48;;;10.60;78.70;;;;;;5032462;28;20033;-75
2021/05/15 05:31:51;;;;;;;1.67;1.10;;;10.80;78.70;;;;;;4998436;28;20141;-76
2021/05/15 05:34:19;;;;;;;2.45;1.45;;;10.80;78.60;;;;;;5032111;28;20044;-75
2021/05/15 05:36:45;;;;;;;1.50;1.05;;;10.80;78.50;;;;;;5031728;28;20427;-75
2021/05/15 05:39:15;;;;;;;1.50;1.10;;;10.90;78.40;;;;;;5031595;28;20092;-75
2021/05/15 05:41:40;;;;;;;2.05;1.20;;;10.90;78.40;;;;;;5014052;28;20057;-75
2021/05/15 05:44:06;;;;;;;1.83;1.20;;;10.90;78.30;;;;;;5031868;28;20069;-75
2021/05/15 05:46:32;;;;;;;3.08;1.50;;;10.90;78.30;;;;;;4997255;28;20088;-75
2021/05/15 05:48:59;;;;;;;1.90;1.20;;;10.90;78.40;;;;;;5013582;28;20446;-75
2021/05/15 05:51:24;;;;;;;2.10;1.33;;;11.00;78.40;;;;;;5031809;28;20034;-76
2021/05/15 05:53:50;;;;;;;1.70;1.15;;;11.10;78.40;;;;;;5031310;28;20087;-75
2021/05/15 05:56:17;;;;;;;3.10;1.52;;;11.10;78.40;;;;;;5014128;28;20034;-75
2021/05/15 05:58:45;;;;;;;2.75;1.60;;;11.10;78.40;;;;;;5031185;28;20045;-76
2021/05/15 06:01:12;;;;;;;3.42;1.80;;;11.20;78.40;;;;;;4996296;28;20124;-76
2021/05/15 06:03:37;;;;;;;3.05;1.70;;;11.20;78.40;;;;;;5031314;28;20480;-73
2021/05/15 06:06:03;;;;;;;2.63;1.70;;;11.20;78.50;;;;;;5031680;28;20034;-74
2021/05/15 06:08:29;;;;;;;2.80;1.73;;;11.30;78.60;;;;;;5011418;28;20168;-75
2021/05/15 06:10:55;;;;;;;3.75;1.92;;;11.30;78.60;;;;;;5013476;28;20042;-75
2021/05/15 06:13:21;;;;;;;3.05;1.70;;;11.20;78.60;;;;;;5031375;28;20032;-74
2021/05/15 06:15:46;;;;;;;3.22;1.70;;;11.30;78.70;;;;;;5013560;28;20033;-74
2021/05/15 06:18:12;;;;;;;3.42;2.33;;;11.20;78.70;;;;;;5030939;28;20042;-74
2021/05/15 06:20:38;;;;;;;4.78;2.50;;;11.30;78.90;;;;;;4980806;28;20113;-74
2021/05/15 06:23:04;;;;;;;5.50;3.03;;;11.30;78.80;;;;;;5014004;28;20038;-74
2021/05/15 06:25:30;;;;;;;5.80;3.17;;;11.30;78.80;;;;;;4996814;28;20030;-74
2021/05/15 06:27:56;;;;;;;6.53;3.33;;;11.30;78.80;;;;;;5030721;28;20132;-74
2021/05/15 06:30:22;;;;;;;6.50;3.67;;;11.30;78.90;;;;;;5013339;28;20113;-75
2021/05/15 06:32:48;;;;;;;6.45;3.53;;;11.30;79.00;;;;;;5031019;28;20478;-74
2021/05/15 06:35:14;;;;;;;5.45;3.33;;;11.30;79.20;;;;;;5013741;28;20133;-74
2021/05/15 06:37:40;;;;;;;7.07;3.67;;;11.20;79.20;;;;;;5013215;28;20096;-74
2021/05/15 06:40:07;;;;;;;6.05;3.03;;;11.30;79.30;;;;;;5015644;28;20037;-74
2021/05/15 06:42:33;;;;;;;5.10;2.75;;;11.20;79.30;;;;;;5034545;28;20046;-74
2021/05/15 06:44:58;;;;;;;6.00;3.17;;;11.20;79.40;;;;;;5034401;28;20056;-74
2021/05/15 06:47:24;;;;;;;5.00;3.17;;;11.30;79.60;;;;;;5034722;28;20041;-74
2021/05/15 06:49:50;;;;;;;6.70;3.15;;;11.30;79.50;;;;;;5034587;28;20072;-74
2021/05/15 06:52:16;;;;;;;5.85;3.28;;;11.30;79.50;;;;;;5034390;28;20133;-74
2021/05/15 06:54:44;;;;;;;5.85;3.35;;;11.30;79.50;;;;;;5016427;28;20044;-74
2021/05/15 06:57:10;;;;;;;5.93;3.20;;;11.30;79.60;;;;;;5034033;28;20037;-74
2021/05/15 06:59:35;;;;;;;6.10;2.97;;;11.30;79.60;;;;;;5034515;28;20430;-74
2021/05/15 07:02:02;;;;;;;6.47;3.30;;;11.30;79.60;;;;;;5016138;28;20061;-74
2021/05/15 07:04:28;;;;;;;5.85;3.20;;;11.40;79.60;;;;;;5034422;28;20037;-74
2021/05/15 07:06:54;;;;;;;5.88;3.20;;;11.40;79.60;;;;;;5034285;28;20088;-74
2021/05/15 07:09:20;;;;;;;6.70;3.20;;;11.50;79.50;;;;;;5016045;28;20041;-74
2021/05/15 07:11:46;;;;;;;6.50;2.72;;;11.50;79.40;;;;;;5015921;28;20034;-74
2021/05/15 07:14:12;;;;;;;4.75;2.65;;;11.50;79.30;;;;;;5016113;28;20034;-74
2021/05/15 07:16:37;;;;;;;5.05;2.85;;;11.60;79.40;;;;;;5033614;28;20033;-74
2021/05/15 07:19:03;;;;;;;5.97;3.13;;;11.60;79.40;;;;;;5015765;28;20511;-75
2021/05/15 07:21:29;;;;;;;5.65;3.20;;;11.60;79.20;;;;;;5016345;28;20131;-74
2021/05/15 07:23:55;;;;;;;5.53;3.28;;;11.60;79.20;;;;;;5016585;28;20068;-74
2021/05/15 07:26:20;;;;;;;5.03;3.00;;;11.70;79.30;;;;;;5033598;28;20167;-74
2021/05/15 07:28:46;;;;;;;5.90;3.22;;;11.70;79.10;;;;;;5015915;28;20111;-74
2021/05/15 07:31:12;;;;;;;5.95;3.20;;;11.80;79.10;;;;;;5016473;28;20172;-74
2021/05/15 07:33:38;;;;;;;4.15;2.38;;;11.80;79.00;;;;;;5034040;28;20482;-74
2021/05/15 07:36:05;;;;;;;5.78;2.75;;;11.80;78.90;;;;;;5033385;28;20038;-76
2021/05/15 07:38:31;;;;;;;5.75;2.95;;;11.90;78.80;;;;;;5015638;28;20045;-74
2021/05/15 07:40:57;;;;;;;5.95;3.22;;;12.00;78.80;;;;;;5033408;28;20037;-75
2021/05/15 07:43:24;;;;;;;6.82;3.65;;;12.00;78.70;;;;;;5015708;28;20041;-74
2021/05/15 07:45:50;;;;;;;6.50;3.90;;;12.00;78.80;;;;;;5033308;28;20112;-75
2021/05/15 07:48:16;;;;;;;5.78;3.20;;;12.00;78.90;;;;;;5014415;28;20107;-74
2021/05/15 07:50:43;;;;;;;5.40;3.03;;;12.10;78.90;;;;;;5015137;28;20042;-74
2021/05/15 07:53:09;;;;;;;5.38;3.42;;;12.20;78.60;;;;;;4998637;28;20140;-75
2021/05/15 07:55:35;;;;;;;4.90;3.20;;;12.20;78.60;;;;;;4999086;28;20060;-75
2021/05/15 07:58:01;;;;;;;5.88;3.33;;;12.20;78.40;;;;;;5033153;28;20041;-75
2021/05/15 08:00:27;;;;;;;5.28;3.33;;;12.30;78.40;;;;;;5033253;28;20029;-75
2021/05/15 08:02:52;;;;;;;5.30;3.15;;;12.20;78.50;;;;;;5032879;28;20035;-74
2021/05/15 08:05:18;;;;;;;5.43;3.13;;;12.30;79.20;;;;;;5032873;28;20113;-75
2021/05/15 08:07:44;;;;;;;4.78;2.85;;;12.30;78.70;;;;;;5032900;28;20048;-75
2021/05/15 08:10:10;;;;;;;5.72;2.80;;;12.30;78.50;;;;;;5014969;28;20042;-75
2021/05/15 08:12:36;;;;;;;6.45;3.10;;;12.40;78.40;;;;;;5032957;28;20046;-76
2021/05/15 08:15:05;;;;;;;5.55;3.30;;;12.50;78.30;;;;;;5033099;28;20087;-75
2021/05/15 08:17:33;;;;;;;5.53;3.08;;;12.60;78.20;;;;;;5033089;28;20125;-75
2021/05/15 08:20:00;;;;;;;4.60;2.92;;;12.60;78.20;;;;;;5033456;28;20475;-75
2021/05/15 08:22:26;;;;;;;6.45;3.58;;;12.60;78.20;;;;;;5015024;28;20116;-76
2021/05/15 08:24:52;;;;;;;5.65;3.38;;;12.80;77.90;;;;;;5033229;28;20539;-75
2021/05/15 08:27:18;;;;;;;5.35;3.20;;;12.80;77.70;;;;;;5032848;28;20045;-74
2021/05/15 08:29:44;;;;;;;5.85;2.95;;;12.90;77.70;;;;;;5014951;28;20168;-74
2021/05/15 08:32:10;;;;;;;5.35;3.10;;;13.10;77.60;;;;;;5032726;28;20029;-75
2021/05/15 08:34:35;;;;;;;4.88;3.08;;;13.40;77.10;;;;;;5015062;28;20041;-75
2021/05/15 08:37:01;;;;;;;5.00;3.15;;;13.70;76.40;;;;;;5032771;28;20030;-74
2021/05/15 08:39:27;;;;;;;5.35;3.10;;;13.70;76.00;;;;;;5032302;28;20033;-75
2021/05/15 08:41:52;;;;;;;4.15;2.72;;;13.70;75.80;;;;;;5015037;28;20497;-75
2021/05/15 08:44:23;;;;;;;4.47;2.85;;;13.60;76.00;;;;;;5014603;28;20432;-75
2021/05/15 08:46:51;;;;;;;6.22;3.30;;;13.50;76.20;;;;;;5015421;28;20034;-75
2021/05/15 08:49:21;;;;;;;4.93;3.15;;;13.40;76.60;;;;;;5032199;28;20491;-74
2021/05/15 08:51:50;;;;;;;4.43;2.60;;;13.40;76.80;;;;;;5032234;28;20029;-74
2021/05/15 08:54:16;;;;;;;4.85;2.85;;;13.40;76.70;;;;;;5031106;28;20119;-74
2021/05/15 08:56:43;;;;;;;4.80;3.05;;;13.20;76.70;;;;;;5014442;28;20034;-74
2021/05/15 08:59:10;;;;;;;4.80;2.95;;;13.30;76.80;;;;;;5032168;28;20404;-75
2021/05/15 09:01:36;;;;;;;4.90;3.00;;;13.30;76.80;;;;;;5013745;28;20433;-74
2021/05/15 09:04:02;;;;;;;5.28;3.08;;;13.20;76.80;;;;;;5014757;28;20056;-74
2021/05/15 09:06:28;;;;;;;5.00;3.33;;;13.30;76.80;;;;;;5014265;28;20034;-74
2021/05/15 09:08:53;;;;;;;6.00;3.17;;;13.30;76.60;;;;;;5014597;28;20071;-75
2021/05/15 09:11:19;;;;;;;5.53;3.28;;;13.30;76.80;;;;;;5032196;28;20099;-75
2021/05/15 09:13:54;;;;;;;8.55;3.25;;;13.40;76.70;;;;;;5032144;28;20123;-75
2021/05/15 09:16:21;;;;;;;7.30;3.70;;;13.40;76.40;;;;;;5032339;28;20141;-74
2021/05/15 09:18:47;;;;;;;5.07;3.25;;;13.40;76.30;;;;;;5014745;28;20045;-75
2021/05/15 09:21:15;;;;;;;4.90;3.10;;;13.40;76.40;;;;;;5013649;28;20033;-75
2021/05/15 09:23:45;;;;;;;4.80;3.08;;;13.40;76.40;;;;;;5014088;28;20025;-75
2021/05/15 09:26:17;;;;;;;4.35;2.75;;;13.40;76.30;;;;;;5014894;28;20030;-75
2021/05/15 09:28:50;;;;;;;;;;;13.40;76.20;;;;;;5032075;28;20091;-75
2021/05/15 09:31:25;;;;;;;4.28;2.90;;;13.40;76.10;;;;;;5031522;28;20354;-75
2021/05/15 09:33:55;;;;;;;5.22;3.05;;;13.50;76.00;;;;;;5032198;28;20046;-75
2021/05/15 09:36:24;;;;;;;5.40;3.17;;;13.50;75.80;;;;;;5032149;28;20060;-74
2021/05/15 09:39:18;;;;;;;5.40;3.20;;;13.50;75.80;;;;;;5013950;28;20049;-74
2021/05/15 09:41:50;;;;;;;4.70;2.92;;;13.40;75.90;;;;;;5031308;28;20450;-75
2021/05/15 09:44:19;;;;;;;4.70;3.03;;;13.40;76.20;;;;;;5013719;28;20099;-75
2021/05/15 09:46:46;;;;;;;4.57;2.70;;;13.40;76.20;;;;;;5013840;28;20044;-75
2021/05/15 09:49:14;;;;;;;4.60;3.00;;;13.60;75.90;;;;;;4997502;28;20034;-75
2021/05/15 09:51:49;;;;;;;4.35;2.75;;;13.80;75.50;;;;;;5031478;28;20037;-75
2021/05/15 09:54:17;;;;;;;4.53;2.58;;;14.00;75.20;;;;;;5031917;28;20086;-75
2021/05/15 09:56:55;;;;;;;5.95;3.20;;;14.30;74.60;;;;;;5031242;28;20038;-75
2021/05/15 09:59:40;;;;;;;3.50;2.10;;;14.40;74.10;;;;;;5031275;28;20521;-75
2021/05/15 10:02:08;;;;;;;3.53;2.40;;;14.50;74.10;;;;;;5031201;28;20034;-75
2021/05/15 10:04:34;;;;;;;4.18;2.50;;;14.50;73.90;;;;;;5031329;28;20068;-75
2021/05/15 10:07:01;;;;;;;3.58;2.35;;;14.60;74.00;;;;;;5014092;28;20038;-75
2021/05/15 10:09:28;;;;;;;3.88;2.35;;;14.70;73.90;;;;;;5031700;28;20033;-75
2021/05/15 10:11:53;;;;;;;4.15;2.08;;;14.70;73.70;;;;;;5020031;28;20034;-74
2021/05/15 10:14:21;;;;;;;3.17;2.15;;;14.80;73.60;;;;;;5023582;28;20038;-75
2021/05/15 10:16:47;;;;;;;5.22;2.50;;;14.90;73.50;;;;;;5043134;28;20036;-74
2021/05/15 10:19:15;;;;;;;3.80;2.53;;;14.90;73.60;;;;;;5042926;28;20041;-74
2021/05/15 10:21:41;;;;;;;3.72;2.50;;;15.10;73.40;;;;;;5026177;28;20041;-73
2021/05/15 10:24:18;;;;;;;3.95;2.35;;;15.20;73.00;;;;;;5042307;28;20038;-74
2021/05/15 10:26:53;;;;;;;3.50;2.15;;;15.50;72.40;;;;;;5020107;28;20064;-74
2021/05/15 10:29:19;;;;;;;4.40;2.30;;;15.70;72.10;;;;;;5042735;28;20042;-74
2021/05/15 10:31:52;;;;;;;3.58;2.20;;;15.90;71.80;;;;;;5023487;28;20048;-74
2021/05/15 10:34:29;;;;;;;3.25;1.85;;;16.00;71.60;;;;;;5039011;28;20049;-74
2021/05/15 10:36:55;;;;;;;3.35;2.08;;;16.00;71.50;;;;;;5025012;28;20037;-74
2021/05/15 10:39:35;;;;;;;3.13;1.92;;;16.00;71.60;;;;;;5044168;28;20061;-74
2021/05/15 10:42:02;;;;;;;2.95;1.90;;;16.10;71.40;;;;;;5024876;28;20123;-73
2021/05/15 10:44:46;;;;;;;3.95;1.92;;;16.20;71.30;;;;;;5042162;28;20471;-73
2021/05/15 10:47:12;;;;;;;2.75;1.52;;;16.10;71.30;;;;;;5022774;28;20415;-74
2021/05/15 10:49:38;;;;;;;4.07;2.03;;;16.00;71.50;;;;;;5005745;28;20076;-74
2021/05/15 10:52:13;;;;;;;2.70;1.80;;;16.00;71.80;;;;;;5040597;28;20048;-74
2021/05/15 10:54:42;;;;;;;3.15;2.05;;;15.90;71.80;;;;;;5025051;28;20038;-75
2021/05/15 10:57:14;;;;;;;3.25;1.80;;;15.80;71.90;;;;;;5025244;28;20541;-74
2021/05/15 10:59:42;;;;;;;2.58;1.90;;;15.80;72.00;;;;;;5044507;28;20044;-74
2021/05/15 11:02:11;;;;;;;2.65;1.70;;;15.90;72.30;;;;;;5043971;28;20046;-74
2021/05/15 11:04:49;;;;;;;3.53;2.00;;;15.90;72.00;;;;;;5008673;28;20040;-74
2021/05/15 11:07:15;;;;;;;2.17;1.52;;;15.90;71.90;;;;;;5044333;28;20033;-74
2021/05/15 11:09:59;;;;;;;2.83;1.73;;;15.90;72.20;;;;;;5026861;28;20065;-74
2021/05/15 11:12:29;;;;;;;1.92;1.30;;;15.90;72.00;;;;;;5043208;28;20136;-74
2021/05/15 11:15:05;;;;;;;2.13;1.43;;;15.90;72.00;;;;;;5044251;28;20048;-74
2021/05/15 11:17:31;;;;;;;2.47;1.67;;;16.00;71.80;;;;;;5042591;28;20378;-74
2021/05/15 11:20:13;;;;;;;3.08;2.10;;;16.10;71.60;;;;;;5042748;28;20032;-74
2021/05/15 11:22:47;;;;;;;3.45;2.20;;;16.10;71.40;;;;;;5044369;28;20544;-74
2021/05/15 11:25:28;;;;;;;3.72;2.10;;;16.10;71.50;;;;;;5041584;28;20045;-76
2021/05/15 11:27:58;;;;;;;;;;;16.10;71.50;;;;;;5040964;28;20029;-74
2021/05/15 11:30:28;;;;;;;2.67;1.50;;;16.10;71.40;;;;;;5042959;28;19906;-75
2021/05/15 11:32:55;;;;;;;2.38;1.60;;;16.20;71.30;;;;;;5040327;28;20053;-75
2021/05/15 11:35:21;;;;;;;2.67;1.77;;;16.40;71.00;;;;;;5042561;28;20030;-74
2021/05/15 11:37:47;;;;;;;2.22;1.73;;;16.50;70.60;;;;;;5023413;28;20049;-74
2021/05/15 11:40:14;;;;;;;2.40;1.58;;;16.60;70.50;;;;;;5042935;28;20072;-74
2021/05/15 11:42:39;;;;;;;2.20;1.63;;;16.60;70.30;;;;;;5026166;28;20029;-75
2021/05/15 11:45:06;;;;;;;2.58;1.80;;;16.50;70.30;;;;;;5043577;28;20033;-74
2021/05/15 11:47:32;;;;;;;1.80;1.40;;;16.70;70.40;;;;;;5026681;28;20067;-74
2021/05/15 11:50:00;;;;;;;2.30;1.65;;;16.70;70.30;;;;;;5025337;28;20100;-74
2021/05/15 11:52:32;;;;;;;2.88;1.70;;;16.80;70.50;;;;;;5024937;28;20057;-75
2021/05/15 11:54:58;;;;;;;3.30;1.70;;;16.60;70.40;;;;;;5007447;28;20057;-75
2021/05/15 11:57:26;;;;;;;5.05;2.83;;;16.40;70.60;;;;;;5042017;28;20041;-74
2021/05/15 11:59:53;;;;;;;3.50;2.45;;;16.00;70.80;;;;;;5039870;28;20097;-75
2021/05/15 12:02:18;;;;;;;3.83;2.42;;;15.50;72.00;;;;;;5041186;28;20117;-74
2021/05/15 12:04:45;;;;;;;2.60;1.80;;;14.90;73.30;;;;;;5038019;28;20049;-75
2021/05/15 12:07:15;;;;;;;2.58;1.42;;;14.50;74.40;;;;;;5036112;28;20021;-76
2021/05/15 12:09:40;;;;;;;1.80;1.30;;;14.00;75.40;;;;;;5034641;28;20038;-76
2021/05/15 12:12:09;;;;;;;2.10;0.90;;;13.70;76.20;;;;;;5047970;28;20117;-75
2021/05/15 12:14:42;;;;;;;1.00;0.65;;;13.50;76.80;;;;;;5024686;28;20434;-75
2021/05/15 12:17:20;;;;;;;0.65;0.60;;;13.30;77.70;;;;;;5028652;28;20105;-76
2021/05/15 12:19:54;;;;;;;0.45;0.43;;;13.30;77.20;;;;;;5025985;28;20422;-75
2021/05/15 12:22:26;;;;;;;1.27;0.40;;;13.40;77.00;;;;;;5023970;28;20062;-75
2021/05/15 12:24:52;;;;;;;0.40;0.40;;;13.50;76.70;;;;;;5023870;28;20388;-76
2021/05/15 12:27:22;;;;;;;0.40;0.40;;;13.70;76.30;;;;;;5023715;28;20129;-75
2021/05/15 12:30:06;;;;;;;0.40;0.40;;;13.80;75.80;;;;;;5027323;28;20029;-75
2021/05/15 12:32:33;;;;;;;0.30;0.30;;;13.80;75.50;;;;;;5043066;28;20400;-75
2021/05/15 12:35:05;;;;;;;0.30;0.30;;;14.00;75.30;;;;;;5009889;28;20053;-75
2021/05/15 12:37:34;;;;;;;0.28;0.20;;;14.00;75.00;;;;;;5028737;28;20041;-75
2021/05/15 12:40:07;;;;;;;0.30;0.30;;;14.00;74.70;;;;;;5027233;28;20040;-76
2021/05/15 12:42:33;;;;;;;1.15;0.20;;;14.00;74.80;;;;;;5018849;28;20375;-76
2021/05/15 12:45:10;;;;;;;0.30;0.30;;;14.00;75.00;;;;;;5034926;28;20467;-76
2021/05/15 12:47:36;;;;;;;0.20;0.20;;;14.10;75.00;;;;;;5002201;28;20392;-75
2021/05/15 12:50:20;;;;;;;0.20;0.20;;;14.10;74.90;;;;;;5006929;28;20391;-76